createdAt,value
2018-07-25T00:00:13.910Z,26.00
2018-07-25T00:02:42.437Z,26.00
2018-07-25T00:05:10.812Z,26.00
2018-07-25T00:07:39.218Z,26.00
2018-07-25T00:10:09.435Z,25.90
2018-07-25T00:12:37.917Z,25.90
2018-07-25T00:15:06.501Z,25.90
2018-07-25T00:17:34.944Z,25.90
2018-07-25T00:20:03.810Z,25.90
2018-07-25T00:22:32.367Z,25.90
2018-07-25T00:25:01.744Z,25.70
2018-07-25T00:27:30.209Z,25.70
2018-07-25T00:29:58.653Z,25.70
2018-07-25T00:32:27.021Z,25.70
2018-07-25T00:34:55.599Z,25.70
2018-07-25T00:37:23.973Z,25.80
2018-07-25T00:39:52.405Z,25.80
2018-07-25T00:42:20.779Z,25.80
2018-07-25T00:44:49.208Z,25.90
2018-07-25T00:47:17.682Z,25.90
2018-07-25T00:49:46.269Z,25.90
2018-07-25T00:52:14.683Z,25.90
2018-07-25T00:54:43.065Z,25.90
2018-07-25T00:57:11.674Z,25.90
2018-07-25T00:59:40.153Z,26.00
2018-07-25T01:02:08.583Z,26.00
2018-07-25T01:04:36.927Z,26.00
2018-07-25T01:07:05.694Z,26.00
2018-07-25T01:09:34.209Z,26.00
2018-07-25T01:12:02.630Z,25.90
2018-07-25T01:14:31.125Z,25.90
2018-07-25T01:16:59.515Z,25.80
2018-07-25T01:19:27.993Z,25.90
2018-07-25T01:21:56.426Z,25.80
2018-07-25T01:24:24.823Z,25.80
2018-07-25T01:26:53.219Z,25.70
2018-07-25T01:29:21.644Z,25.70
2018-07-25T01:31:50.043Z,25.70
2018-07-25T01:34:18.460Z,25.80
2018-07-25T01:36:47.021Z,25.80
2018-07-25T01:39:15.445Z,25.80
2018-07-25T01:41:43.937Z,25.80
2018-07-25T01:44:12.297Z,25.80
2018-07-25T01:46:40.714Z,25.90
2018-07-25T01:49:09.354Z,25.90
2018-07-25T01:51:37.851Z,25.90
2018-07-25T01:54:06.362Z,25.90
2018-07-25T01:56:34.801Z,25.90
2018-07-25T01:59:03.146Z,26.00
2018-07-25T02:01:31.593Z,26.00
2018-07-25T02:04:00.010Z,26.00
2018-07-25T02:06:28.400Z,25.80
2018-07-25T02:08:57.185Z,25.70
2018-07-25T02:11:25.671Z,25.50
2018-07-25T02:13:54.058Z,25.40
2018-07-25T02:16:22.527Z,25.40
2018-07-25T02:18:51.039Z,25.40
2018-07-25T02:21:19.588Z,25.30
2018-07-25T02:23:48.186Z,25.30
2018-07-25T02:26:16.578Z,25.30
2018-07-25T02:28:44.990Z,25.40
2018-07-25T02:31:13.374Z,25.40
2018-07-25T02:33:47.230Z,25.40
2018-07-25T02:36:15.779Z,25.40
2018-07-25T02:38:44.400Z,25.30
2018-07-25T02:41:12.785Z,25.30
2018-07-25T02:43:41.310Z,25.30
2018-07-25T02:46:09.627Z,25.30
2018-07-25T02:48:38.100Z,25.30
2018-07-25T02:51:06.558Z,25.40
2018-07-25T02:53:34.914Z,25.40
2018-07-25T02:56:03.304Z,25.30
2018-07-25T02:58:31.712Z,25.40
2018-07-25T03:01:00.157Z,25.40
2018-07-25T03:03:28.748Z,25.50
2018-07-25T03:05:57.310Z,25.50
2018-07-25T03:08:25.685Z,25.50
2018-07-25T03:10:55.584Z,25.60
2018-07-25T03:13:24.996Z,25.50
2018-07-25T03:18:37.286Z,25.40
2018-07-25T03:21:05.678Z,25.40
2018-07-25T03:23:35.066Z,25.40
2018-07-25T03:26:03.467Z,25.40
2018-07-25T03:28:32.077Z,25.40
2018-07-25T03:31:01.311Z,25.40
2018-07-25T03:33:29.675Z,25.40
2018-07-25T03:35:59.262Z,25.40
2018-07-25T03:38:28.417Z,25.40
2018-07-25T03:40:56.934Z,25.40
2018-07-25T03:43:25.330Z,25.40
2018-07-25T03:45:53.751Z,25.40
2018-07-25T03:48:22.190Z,25.40
2018-07-25T03:50:50.612Z,25.40
2018-07-25T03:53:19.196Z,25.40
2018-07-25T03:55:47.589Z,25.40
2018-07-25T03:58:15.998Z,25.30
2018-07-25T04:00:44.382Z,25.20
2018-07-25T04:03:12.910Z,25.10
2018-07-25T04:05:41.313Z,25.10
2018-07-25T04:08:09.981Z,25.00
2018-07-25T04:10:38.478Z,25.00
2018-07-25T04:13:06.884Z,25.00
2018-07-25T04:15:35.255Z,24.90
2018-07-25T04:18:03.689Z,25.00
2018-07-25T04:20:32.086Z,25.00
2018-07-25T04:23:00.714Z,25.10
2018-07-25T04:25:29.063Z,25.10
2018-07-25T04:27:57.501Z,25.10
2018-07-25T04:30:25.883Z,25.10
2018-07-25T04:32:54.355Z,25.10
2018-07-25T04:35:22.957Z,25.10
2018-07-25T04:37:51.325Z,25.10
2018-07-25T04:40:19.701Z,25.20
2018-07-25T04:42:49.271Z,25.20
2018-07-25T04:45:17.627Z,25.20
2018-07-25T04:47:46.089Z,25.30
2018-07-25T04:50:14.478Z,25.30
2018-07-25T04:52:42.922Z,25.40
2018-07-25T04:55:11.284Z,25.40
2018-07-25T04:57:39.860Z,25.40
2018-07-25T05:00:08.364Z,25.40
2018-07-25T05:02:36.732Z,25.30
2018-07-25T05:05:05.376Z,25.30
2018-07-25T05:07:33.934Z,25.30
2018-07-25T05:10:02.370Z,25.30
2018-07-25T05:12:30.893Z,25.30
2018-07-25T05:14:59.280Z,25.10
2018-07-25T05:17:27.782Z,25.00
2018-07-25T05:19:56.299Z,25.00
2018-07-25T05:22:24.665Z,25.00
2018-07-25T05:24:53.219Z,25.00
2018-07-25T05:27:21.766Z,25.10
2018-07-25T05:29:50.274Z,25.10
2018-07-25T05:32:18.672Z,25.10
2018-07-25T05:34:47.067Z,25.20
2018-07-25T05:37:15.508Z,25.30
2018-07-25T05:39:44.034Z,25.40
2018-07-25T05:42:12.426Z,25.40
2018-07-25T05:44:40.893Z,25.50
2018-07-25T05:47:09.310Z,25.50
2018-07-25T05:49:37.717Z,25.60
2018-07-25T05:52:06.171Z,25.60
2018-07-25T05:54:34.533Z,25.60
2018-07-25T05:57:03.115Z,25.70
2018-07-25T05:59:31.691Z,25.70
2018-07-25T06:02:00.319Z,25.70
2018-07-25T06:04:28.747Z,25.70
2018-07-25T06:06:57.225Z,25.70
2018-07-25T06:09:25.852Z,25.70
2018-07-25T06:11:54.323Z,25.70
2018-07-25T06:14:22.810Z,25.70
2018-07-25T06:16:51.361Z,25.70
2018-07-25T06:19:19.913Z,25.70
2018-07-25T06:21:48.313Z,25.80
2018-07-25T06:24:16.848Z,25.60
2018-07-25T06:26:45.281Z,25.60
2018-07-25T06:29:13.844Z,25.60
2018-07-25T06:31:42.229Z,25.60
2018-07-25T06:34:10.767Z,25.70
2018-07-25T06:36:39.137Z,25.70
2018-07-25T06:39:11.432Z,25.80
2018-07-25T06:41:39.837Z,25.80
2018-07-25T06:44:09.133Z,25.80
2018-07-25T06:46:37.525Z,25.90
2018-07-25T06:49:06.843Z,25.90
2018-07-25T06:51:35.475Z,25.90
2018-07-25T06:54:03.840Z,25.90
2018-07-25T06:56:32.402Z,25.90
2018-07-25T06:59:00.912Z,25.90
2018-07-25T07:01:29.962Z,26.00
2018-07-25T07:03:58.387Z,26.00
2018-07-25T07:06:26.802Z,26.00
2018-07-25T07:08:55.393Z,26.00
2018-07-25T07:11:23.965Z,26.00
2018-07-25T07:13:52.407Z,26.00
2018-07-25T07:16:20.785Z,26.00
2018-07-25T07:18:49.293Z,26.00
2018-07-25T07:21:17.809Z,26.10
2018-07-25T07:23:46.296Z,26.00
2018-07-25T07:26:14.706Z,26.00
2018-07-25T07:28:43.093Z,26.10
2018-07-25T07:31:11.512Z,26.00
2018-07-25T07:33:39.965Z,26.10
2018-07-25T07:36:08.441Z,26.10
2018-07-25T07:38:36.839Z,26.10
2018-07-25T07:41:05.250Z,26.10
2018-07-25T07:43:33.829Z,26.10
2018-07-25T07:46:02.516Z,26.10
2018-07-25T07:48:30.893Z,26.10
2018-07-25T07:50:59.387Z,26.10
2018-07-25T07:53:27.712Z,26.20
2018-07-25T07:55:56.364Z,26.20
2018-07-25T07:58:24.881Z,26.20
2018-07-25T08:00:53.349Z,26.20
2018-07-25T08:03:22.120Z,26.20
2018-07-25T08:05:51.597Z,26.20
2018-07-25T08:08:20.093Z,26.20
2018-07-25T08:10:48.451Z,26.20
2018-07-25T08:13:16.838Z,26.20
2018-07-25T08:15:45.425Z,26.20
2018-07-25T08:18:13.884Z,26.20
2018-07-25T08:20:42.339Z,26.20
2018-07-25T08:23:10.733Z,26.20
2018-07-25T08:25:39.608Z,26.20
2018-07-25T08:30:37.055Z,26.20
2018-07-25T08:33:05.400Z,26.20
2018-07-25T08:35:33.806Z,26.20
2018-07-25T08:38:02.318Z,26.20
2018-07-25T08:40:30.848Z,26.20
2018-07-25T08:42:59.309Z,26.20
2018-07-25T08:45:27.686Z,26.20
2018-07-25T08:47:56.385Z,26.20
2018-07-25T08:50:25.030Z,26.20
2018-07-25T08:52:53.589Z,26.20
2018-07-25T08:55:22.069Z,26.20
2018-07-25T08:57:50.542Z,26.20
2018-07-25T09:00:19.010Z,26.20
2018-07-25T09:02:47.408Z,26.20
2018-07-25T09:05:15.865Z,26.20
2018-07-25T09:07:44.248Z,26.20
2018-07-25T09:10:12.630Z,26.30
2018-07-25T09:12:41.121Z,26.30
2018-07-25T09:15:09.627Z,26.20
2018-07-25T09:17:38.213Z,26.20
2018-07-25T09:20:06.985Z,26.20
2018-07-25T09:22:35.445Z,26.20
2018-07-25T09:25:03.966Z,26.30
2018-07-25T09:27:32.351Z,26.30
2018-07-25T09:30:00.786Z,26.30
2018-07-25T09:32:29.223Z,26.30
2018-07-25T09:34:57.669Z,26.30
2018-07-25T09:37:28.582Z,26.20
2018-07-25T09:39:57.197Z,26.30
2018-07-25T09:42:25.573Z,26.30
2018-07-25T09:44:54.009Z,26.30
2018-07-25T09:47:22.471Z,26.30
2018-07-25T09:49:52.493Z,26.30
2018-07-25T09:52:21.032Z,26.30
2018-07-25T09:54:49.433Z,26.30
2018-07-25T09:57:17.985Z,26.30
2018-07-25T09:59:46.493Z,26.30
2018-07-25T10:02:15.052Z,26.30
2018-07-25T10:04:43.485Z,26.30
2018-07-25T10:07:11.992Z,26.30
2018-07-25T10:09:40.546Z,26.30
2018-07-25T10:12:09.418Z,26.30
2018-07-25T10:14:37.944Z,26.30
2018-07-25T10:17:06.318Z,26.30
2018-07-25T10:19:34.802Z,26.30
2018-07-25T10:22:03.268Z,26.30
2018-07-25T10:24:31.885Z,26.30
2018-07-25T10:27:00.323Z,26.30
2018-07-25T10:29:28.767Z,26.30
2018-07-25T10:31:57.174Z,26.30
2018-07-25T10:34:25.701Z,26.30
2018-07-25T10:36:54.128Z,26.40
2018-07-25T10:39:22.720Z,26.40
2018-07-25T10:41:51.138Z,26.40
2018-07-25T10:44:19.668Z,26.40
2018-07-25T10:46:48.105Z,26.40
2018-07-25T10:49:16.641Z,26.40
2018-07-25T10:51:45.040Z,26.40
2018-07-25T10:54:13.480Z,26.40
2018-07-25T10:56:41.898Z,26.50
2018-07-25T10:59:10.355Z,26.40
2018-07-25T11:01:38.905Z,26.50
2018-07-25T11:04:07.390Z,26.50
2018-07-25T11:06:35.847Z,26.50
2018-07-25T11:09:06.164Z,26.50
2018-07-25T11:11:34.710Z,26.50
2018-07-25T11:14:03.358Z,26.50
2018-07-25T11:16:32.011Z,26.50
2018-07-25T11:19:00.842Z,26.50
2018-07-25T11:21:29.439Z,26.50
2018-07-25T11:23:57.986Z,26.50
2018-07-25T11:26:26.394Z,26.50
2018-07-25T11:28:54.924Z,26.50
2018-07-25T11:31:23.490Z,26.50
2018-07-25T11:33:52.042Z,26.50
2018-07-25T11:36:20.398Z,26.50
2018-07-25T11:38:48.738Z,26.50
2018-07-25T11:41:17.138Z,26.40
2018-07-25T11:43:45.587Z,26.40
2018-07-25T11:46:13.967Z,26.40
2018-07-25T11:48:42.537Z,26.50
2018-07-25T11:51:10.874Z,26.40
2018-07-25T11:53:39.394Z,26.40
2018-07-25T11:56:07.864Z,26.40
2018-07-25T11:58:36.423Z,26.40
2018-07-25T12:01:04.876Z,26.40
2018-07-25T12:03:33.186Z,26.40
2018-07-25T12:06:01.538Z,26.40
2018-07-25T12:08:29.961Z,26.40
2018-07-25T12:10:58.357Z,26.40
2018-07-25T12:13:26.802Z,26.40
2018-07-25T12:15:55.193Z,26.40
2018-07-25T12:18:23.705Z,26.40
2018-07-25T12:20:52.197Z,26.40
2018-07-25T12:23:20.715Z,26.40
2018-07-25T12:25:49.347Z,26.40
2018-07-25T12:28:17.790Z,26.40
2018-07-25T12:30:46.164Z,26.40
2018-07-25T12:33:14.677Z,26.40
2018-07-25T12:35:43.134Z,26.40
2018-07-25T12:38:11.538Z,26.40
2018-07-25T12:40:39.958Z,26.40
2018-07-25T12:43:08.489Z,26.50
2018-07-25T12:45:37.334Z,26.50
2018-07-25T12:48:05.962Z,26.50
2018-07-25T12:50:34.394Z,26.50
2018-07-25T12:53:02.790Z,26.50
2018-07-25T12:55:31.270Z,26.50
2018-07-25T12:57:59.637Z,26.50
2018-07-25T13:00:28.035Z,26.60
2018-07-25T13:02:56.801Z,26.60
2018-07-25T13:05:25.118Z,26.60
2018-07-25T13:07:53.491Z,26.60
2018-07-25T13:10:22.157Z,26.60
2018-07-25T13:12:50.732Z,26.60
2018-07-25T13:15:19.436Z,26.60
2018-07-25T13:17:48.098Z,26.60
2018-07-25T13:20:16.820Z,26.70
2018-07-25T13:22:45.359Z,26.70
2018-07-25T13:25:13.902Z,26.60
2018-07-25T13:27:42.536Z,26.70
2018-07-25T13:32:39.152Z,26.60
2018-07-25T13:35:07.711Z,26.70
2018-07-25T13:37:36.292Z,26.70
2018-07-25T13:40:05.514Z,26.70
2018-07-25T13:42:34.062Z,26.70
2018-07-25T13:45:02.523Z,26.70
2018-07-25T13:47:31.085Z,26.70
2018-07-25T13:49:59.475Z,26.70
2018-07-25T13:52:28.170Z,26.70
2018-07-25T13:54:56.613Z,26.70
2018-07-25T13:57:25.041Z,26.70
2018-07-25T13:59:53.553Z,26.70
2018-07-25T14:02:22.112Z,26.70
2018-07-25T14:04:50.872Z,26.70
2018-07-25T14:07:19.350Z,26.70
2018-07-25T14:09:47.766Z,26.70
2018-07-25T14:12:16.372Z,26.80
2018-07-25T14:14:44.866Z,26.80
2018-07-25T14:17:13.294Z,26.80
2018-07-25T14:19:41.780Z,26.70
2018-07-25T14:22:10.357Z,26.70
2018-07-25T14:24:38.947Z,26.70
2018-07-25T14:27:07.526Z,26.70
2018-07-25T14:29:35.985Z,26.70
2018-07-25T14:32:04.482Z,26.70
2018-07-25T14:34:32.954Z,26.70
2018-07-25T14:37:01.487Z,26.80
2018-07-25T14:39:29.876Z,26.80
2018-07-25T14:41:58.313Z,26.80
2018-07-25T14:44:26.835Z,26.80
2018-07-25T14:46:55.714Z,26.80
2018-07-25T14:49:24.239Z,26.80
2018-07-25T14:51:52.656Z,26.80
2018-07-25T14:54:21.205Z,26.80
2018-07-25T14:56:49.800Z,26.80
2018-07-25T14:59:18.493Z,26.80
2018-07-25T15:01:46.920Z,26.80
2018-07-25T15:04:15.483Z,26.80
2018-07-25T15:06:43.982Z,26.80
2018-07-25T15:09:12.641Z,26.80
2018-07-25T15:11:41.132Z,26.90
2018-07-25T15:14:10.233Z,26.90
2018-07-25T15:16:39.170Z,26.90
2018-07-25T15:19:07.919Z,26.90
2018-07-25T15:21:36.326Z,26.90
2018-07-25T15:24:06.048Z,26.90
2018-07-25T15:26:37.793Z,26.90
2018-07-25T15:29:06.224Z,26.90
2018-07-25T15:31:34.575Z,26.90
2018-07-25T15:34:03.013Z,26.90
2018-07-25T15:36:45.200Z,26.90
2018-07-25T15:39:30.466Z,26.90
2018-07-25T15:41:59.326Z,26.90
2018-07-25T15:44:28.366Z,26.90
2018-07-25T15:46:56.959Z,26.90
2018-07-25T15:49:25.567Z,26.90
2018-07-25T15:51:53.937Z,26.90
2018-07-25T15:54:22.358Z,26.90
2018-07-25T15:56:50.912Z,26.90
2018-07-25T15:59:19.276Z,26.90
2018-07-25T16:01:47.763Z,26.90
2018-07-25T16:04:16.082Z,26.90
2018-07-25T16:06:44.567Z,27.00
2018-07-25T16:09:13.713Z,27.00
2018-07-25T16:11:42.468Z,26.90
2018-07-25T16:14:10.912Z,26.90
2018-07-25T16:16:39.426Z,26.90
2018-07-25T16:19:08.155Z,26.90
2018-07-25T16:21:36.535Z,26.90
2018-07-25T16:24:04.982Z,27.00
2018-07-25T16:26:33.504Z,27.00
2018-07-25T16:29:02.693Z,26.90
2018-07-25T16:31:31.114Z,26.90
2018-07-25T16:33:59.792Z,26.90
2018-07-25T16:36:28.254Z,26.90
2018-07-25T16:41:24.975Z,26.90
2018-07-25T16:43:53.684Z,26.90
2018-07-25T16:46:22.094Z,26.90
2018-07-25T16:48:50.505Z,26.90
2018-07-25T16:51:19.037Z,26.90
2018-07-25T16:53:47.605Z,27.00
2018-07-25T16:56:16.080Z,26.90
2018-07-25T16:58:44.475Z,26.90
2018-07-25T17:01:12.855Z,26.90
2018-07-25T17:03:41.336Z,26.90
2018-07-25T17:06:09.784Z,27.00
2018-07-25T17:08:38.220Z,26.90
2018-07-25T17:11:07.143Z,26.90
2018-07-25T17:13:35.662Z,27.00
2018-07-25T17:16:04.105Z,27.00
2018-07-25T17:18:32.630Z,27.00
2018-07-25T17:21:01.162Z,27.00
2018-07-25T17:23:29.641Z,27.00
2018-07-25T17:25:58.000Z,27.00
2018-07-25T17:28:27.547Z,27.00
2018-07-25T17:30:56.213Z,27.00
2018-07-25T17:33:24.630Z,27.00
2018-07-25T17:35:53.066Z,27.00
2018-07-25T17:38:21.538Z,26.90
2018-07-25T17:40:50.019Z,26.90
2018-07-25T17:43:18.535Z,26.90
2018-07-25T17:45:47.051Z,26.90
2018-07-25T17:48:15.468Z,26.90
2018-07-25T17:50:43.988Z,26.90
2018-07-25T17:53:12.683Z,26.90
2018-07-25T17:55:41.509Z,26.90
2018-07-25T17:58:09.892Z,26.90
2018-07-25T18:00:38.360Z,26.90
2018-07-25T18:03:06.974Z,26.90
2018-07-25T18:05:35.501Z,26.90
2018-07-25T18:08:03.857Z,26.90
2018-07-25T18:10:32.324Z,26.90
2018-07-25T18:15:34.506Z,27.00
2018-07-25T18:18:02.928Z,26.90
2018-07-25T18:20:31.392Z,26.90
2018-07-25T18:22:59.765Z,27.00
2018-07-25T18:25:28.430Z,27.00
2018-07-25T18:27:56.890Z,27.00
2018-07-25T18:30:25.365Z,27.10
2018-07-25T18:32:53.785Z,27.00
2018-07-25T18:35:22.280Z,27.10
2018-07-25T18:37:50.855Z,27.00
2018-07-25T18:40:19.263Z,27.10
2018-07-25T18:42:47.709Z,27.00
2018-07-25T18:45:16.196Z,27.00
2018-07-25T18:47:44.773Z,27.10
2018-07-25T18:50:13.160Z,27.00
2018-07-25T18:52:41.776Z,27.00
2018-07-25T18:55:10.156Z,27.00
2018-07-25T18:57:38.560Z,27.00
2018-07-25T19:02:35.148Z,27.00
2018-07-25T19:05:03.644Z,27.00
2018-07-25T19:07:32.026Z,27.00
2018-07-25T19:10:00.425Z,27.00
2018-07-25T19:12:29.623Z,27.00
2018-07-25T19:15:03.304Z,27.00
2018-07-25T19:17:31.751Z,27.00
2018-07-25T19:20:00.393Z,27.00
2018-07-25T19:22:28.920Z,27.00
2018-07-25T19:24:57.465Z,26.90
2018-07-25T19:27:26.050Z,27.00
2018-07-25T19:29:54.666Z,26.90
2018-07-25T19:32:23.031Z,26.90
2018-07-25T19:34:52.238Z,27.00
2018-07-25T19:37:20.769Z,26.90
2018-07-25T19:39:49.288Z,26.90
2018-07-25T19:42:17.662Z,26.90
2018-07-25T19:44:46.245Z,26.90
2018-07-25T19:47:15.550Z,26.90
2018-07-25T19:49:44.279Z,26.90
2018-07-25T19:52:13.055Z,26.90
2018-07-25T19:54:41.412Z,27.00
2018-07-25T19:57:10.515Z,26.90
2018-07-25T19:59:39.915Z,26.90
2018-07-25T20:02:08.315Z,26.90
2018-07-25T20:04:36.889Z,26.90
2018-07-25T20:07:05.367Z,26.90
2018-07-25T20:09:33.981Z,26.90
2018-07-25T20:14:35.949Z,26.90
2018-07-25T20:17:04.526Z,26.90
2018-07-25T20:19:32.916Z,26.90
2018-07-25T20:22:01.472Z,26.90
2018-07-25T20:24:29.914Z,26.90
2018-07-25T20:26:58.345Z,26.90
2018-07-25T20:29:26.747Z,26.90
2018-07-25T20:31:55.108Z,26.90
2018-07-25T20:34:23.530Z,26.90
2018-07-25T20:36:51.927Z,26.90
2018-07-25T20:39:20.330Z,26.90
2018-07-25T20:41:48.817Z,26.90
2018-07-25T20:44:17.383Z,26.90
2018-07-25T20:46:45.846Z,26.80
2018-07-25T20:49:14.297Z,26.80
2018-07-25T20:51:42.793Z,26.80
2018-07-25T20:54:11.401Z,26.70
2018-07-25T20:56:39.811Z,26.70
2018-07-25T20:59:08.206Z,26.70
2018-07-25T21:01:36.694Z,26.70
2018-07-25T21:04:05.025Z,26.70
2018-07-25T21:06:33.548Z,26.70
2018-07-25T21:09:01.950Z,26.70
2018-07-25T21:11:30.366Z,26.70
2018-07-25T21:13:58.847Z,26.70
2018-07-25T21:16:27.270Z,26.60
2018-07-25T21:18:55.912Z,26.70
2018-07-25T21:21:24.343Z,26.70
2018-07-25T21:23:52.827Z,26.70
2018-07-25T21:26:21.229Z,26.70
2018-07-25T21:28:49.673Z,26.70
2018-07-25T21:31:18.147Z,26.60
2018-07-25T21:33:46.575Z,26.60
2018-07-25T21:36:14.979Z,26.60
2018-07-25T21:38:43.426Z,26.60
2018-07-25T21:41:11.837Z,26.60
2018-07-25T21:43:40.255Z,26.60
2018-07-25T21:46:08.816Z,26.60
2018-07-25T21:48:37.157Z,26.60
2018-07-25T21:51:05.615Z,26.60
2018-07-25T21:53:34.099Z,26.50
2018-07-25T21:56:02.532Z,26.50
2018-07-25T21:58:30.919Z,26.50
2018-07-25T22:01:04.699Z,26.50
2018-07-25T22:03:33.205Z,26.50
2018-07-25T22:06:01.627Z,26.50
2018-07-25T22:08:30.297Z,26.60
2018-07-25T22:10:58.836Z,26.50
2018-07-25T22:13:27.266Z,26.50
2018-07-25T22:15:55.635Z,26.60
2018-07-25T22:18:24.120Z,26.40
2018-07-25T22:20:52.560Z,26.50
2018-07-25T22:23:21.141Z,26.50
2018-07-25T22:25:49.581Z,26.50
2018-07-25T22:28:18.008Z,26.50
2018-07-25T22:30:46.437Z,26.50
2018-07-25T22:33:14.879Z,26.50
2018-07-25T22:35:43.391Z,26.50
2018-07-25T22:40:40.236Z,26.50
2018-07-25T22:43:08.692Z,26.50
2018-07-25T22:45:37.359Z,26.50
2018-07-25T22:48:06.191Z,26.50
2018-07-25T22:53:03.023Z,26.60
2018-07-25T22:55:31.525Z,26.50
2018-07-25T22:58:00.076Z,26.50
2018-07-25T23:00:28.652Z,26.50
2018-07-25T23:02:57.083Z,26.50
2018-07-25T23:05:25.680Z,26.50
2018-07-25T23:07:54.141Z,26.50
2018-07-25T23:12:50.933Z,26.50
2018-07-25T23:15:19.447Z,26.50
2018-07-25T23:17:47.970Z,26.50
2018-07-25T23:20:16.403Z,26.50
2018-07-25T23:22:54.113Z,26.50
2018-07-25T23:25:22.891Z,26.50
2018-07-25T23:27:51.815Z,26.50
2018-07-25T23:32:48.928Z,26.40
2018-07-25T23:35:17.561Z,26.40
2018-07-25T23:40:14.759Z,26.40
2018-07-25T23:42:43.267Z,26.40
2018-07-25T23:45:11.712Z,26.40
2018-07-25T23:47:40.179Z,26.40
2018-07-25T23:50:08.728Z,26.30
2018-07-25T23:52:37.605Z,26.40
2018-07-25T23:55:06.948Z,26.40
2018-07-25T23:57:35.464Z,26.40
